createdAt,value
2022-08-19T00:00:03.519Z,19.75
2022-08-19T00:02:51.508Z,19.67
2022-08-19T00:05:39.753Z,19.60
2022-08-19T00:08:27.345Z,19.55
2022-08-19T00:11:18.601Z,19.52
2022-08-19T00:14:03.772Z,19.45
2022-08-19T00:16:53.162Z,19.42
2022-08-19T00:19:41.779Z,19.49
2022-08-19T00:22:29.527Z,19.53
2022-08-19T00:25:17.560Z,19.50
2022-08-19T00:28:05.847Z,19.52
2022-08-19T00:30:54.248Z,19.49
2022-08-19T00:33:41.800Z,19.53
2022-08-19T00:36:30.103Z,19.67
2022-08-19T00:39:19.425Z,19.83
2022-08-19T00:42:07.528Z,19.93
2022-08-19T00:44:55.009Z,20.01
2022-08-19T00:47:43.178Z,20.09
2022-08-19T00:50:31.097Z,20.16
2022-08-19T00:53:21.034Z,20.21
2022-08-19T00:56:09.896Z,20.22
2022-08-19T00:58:59.616Z,20.28
2022-08-19T01:01:48.525Z,20.37
2022-08-19T01:04:36.329Z,20.59
2022-08-19T01:07:23.647Z,20.70
2022-08-19T01:10:14.409Z,20.80
2022-08-19T01:13:02.457Z,20.93
2022-08-19T01:15:53.433Z,21.03
2022-08-19T01:18:43.545Z,21.10
2022-08-19T01:21:46.015Z,21.17
2022-08-19T01:24:33.640Z,21.17
2022-08-19T01:27:22.343Z,21.14
2022-08-19T01:30:11.192Z,21.10
2022-08-19T01:33:00.648Z,21.14
2022-08-19T01:35:50.664Z,21.22
2022-08-19T01:38:44.423Z,21.26
2022-08-19T01:41:28.832Z,21.28
2022-08-19T01:44:19.344Z,21.29
2022-08-19T01:47:07.744Z,21.33
2022-08-19T01:49:55.217Z,21.36
2022-08-19T01:52:45.186Z,21.42
2022-08-19T01:55:32.841Z,21.50
2022-08-19T01:58:26.208Z,21.50
2022-08-19T02:01:13.752Z,21.53
2022-08-19T02:04:01.927Z,21.56
2022-08-19T02:06:49.336Z,21.66
2022-08-19T02:09:37.386Z,21.75
2022-08-19T02:12:24.840Z,21.77
2022-08-19T02:15:12.635Z,21.83
2022-08-19T02:18:00.368Z,21.88
2022-08-19T02:20:50.953Z,21.94
2022-08-19T02:23:38.324Z,22.00
2022-08-19T02:26:27.703Z,22.04
2022-08-19T02:29:14.955Z,22.08
2022-08-19T02:32:02.105Z,22.07
2022-08-19T02:34:50.305Z,22.09
2022-08-19T02:37:55.904Z,22.05
2022-08-19T02:40:45.056Z,22.01
2022-08-19T02:43:35.952Z,21.95
2022-08-19T02:46:28.030Z,21.95
2022-08-19T02:49:17.033Z,21.92
2022-08-19T02:52:05.479Z,21.92
2022-08-19T02:54:53.008Z,21.93
2022-08-19T02:57:40.551Z,21.95
2022-08-19T03:00:28.672Z,21.98
2022-08-19T03:03:16.536Z,22.03
2022-08-19T03:06:13.895Z,22.05
2022-08-19T03:09:02.328Z,22.12
2022-08-19T03:11:52.630Z,22.13
2022-08-19T03:14:39.760Z,22.14
2022-08-19T03:17:27.368Z,22.12
2022-08-19T03:20:14.744Z,22.14
2022-08-19T03:23:01.939Z,22.19
2022-08-19T03:25:58.169Z,22.27
2022-08-19T03:28:40.408Z,22.29
2022-08-19T03:31:43.770Z,22.27
2022-08-19T03:34:23.527Z,22.26
2022-08-19T03:37:14.456Z,22.26
2022-08-19T03:40:03.430Z,22.24
2022-08-19T03:42:51.088Z,22.17
2022-08-19T03:45:38.616Z,22.11
2022-08-19T03:48:26.682Z,22.00
2022-08-19T03:54:08.847Z,21.72
2022-08-19T03:56:57.585Z,21.59
2022-08-19T03:59:45.127Z,21.53
2022-08-19T04:02:32.689Z,21.54
2022-08-19T04:05:20.065Z,21.60
2022-08-19T04:08:13.367Z,21.61
2022-08-19T04:10:57.896Z,21.61
2022-08-19T04:13:45.887Z,21.60
2022-08-19T04:16:35.278Z,21.67
2022-08-19T04:19:24.081Z,21.79
2022-08-19T04:22:12.711Z,21.89
2022-08-19T04:25:00.225Z,22.05
2022-08-19T04:27:47.945Z,22.21
2022-08-19T04:30:40.311Z,22.32
2022-08-19T04:33:29.671Z,22.44
2022-08-19T04:36:22.559Z,22.55
2022-08-19T04:39:12.753Z,22.62
2022-08-19T04:42:17.344Z,22.68
2022-08-19T04:45:11.395Z,22.67
2022-08-19T04:48:26.508Z,22.71
2022-08-19T04:50:49.745Z,22.74
2022-08-19T04:53:38.799Z,22.82
2022-08-19T04:56:27.480Z,22.90
2022-08-19T04:59:15.816Z,22.96
2022-08-19T05:02:03.145Z,23.01
2022-08-19T05:04:50.824Z,23.08
2022-08-19T05:07:39.361Z,23.15
2022-08-19T05:10:27.119Z,23.21
2022-08-19T05:13:14.519Z,23.27
2022-08-19T05:16:01.927Z,23.35
2022-08-19T05:19:07.858Z,23.39
2022-08-19T05:22:13.863Z,23.46
2022-08-19T05:25:12.633Z,23.54
2022-08-19T05:27:50.448Z,23.63
2022-08-19T05:30:47.335Z,23.73
2022-08-19T05:33:27.400Z,23.80
2022-08-19T05:36:15.163Z,23.92
2022-08-19T05:39:03.264Z,24.05
2022-08-19T05:41:54.064Z,24.10
2022-08-19T05:44:45.272Z,24.19
2022-08-19T05:47:33.257Z,24.28
2022-08-19T05:50:20.895Z,24.35
2022-08-19T05:53:09.841Z,24.42
2022-08-19T05:55:56.912Z,24.46
2022-08-19T05:58:47.270Z,24.54
2022-08-19T06:01:34.600Z,24.64
2022-08-19T06:04:22.977Z,24.75
2022-08-19T06:07:12.289Z,24.89
2022-08-19T06:10:01.430Z,24.97
2022-08-19T06:12:49.291Z,24.97
2022-08-19T06:15:36.712Z,24.99
2022-08-19T06:18:24.418Z,24.94
2022-08-19T06:21:12.080Z,24.93
2022-08-19T06:23:59.842Z,24.92
2022-08-19T06:26:49.822Z,24.94
2022-08-19T06:29:37.448Z,24.94
2022-08-19T06:32:24.824Z,25.07
2022-08-19T06:35:12.401Z,25.19
2022-08-19T06:38:00.385Z,25.34
2022-08-19T06:40:47.796Z,25.47
2022-08-19T06:43:35.243Z,25.59
2022-08-19T06:46:24.807Z,25.68
2022-08-19T06:49:14.512Z,25.84
2022-08-19T06:52:02.385Z,26.00
2022-08-19T06:54:55.906Z,26.14
2022-08-19T06:57:38.552Z,26.29
2022-08-19T07:00:26.088Z,26.33
2022-08-19T07:03:14.052Z,26.28
2022-08-19T07:06:21.269Z,26.33
2022-08-19T07:09:00.288Z,26.39
2022-08-19T07:11:50.965Z,26.52
2022-08-19T07:14:39.842Z,26.53
2022-08-19T07:17:27.912Z,26.58
2022-08-19T07:20:15.539Z,26.62
2022-08-19T07:23:07.221Z,26.71
2022-08-19T07:25:53.692Z,26.77
2022-08-19T07:28:51.344Z,26.86
2022-08-19T07:31:31.172Z,27.02
2022-08-19T07:34:20.160Z,27.03
2022-08-19T07:37:08.873Z,27.10
2022-08-19T07:39:56.730Z,27.27
2022-08-19T07:42:45.232Z,27.47
2022-08-19T07:45:33.465Z,27.63
2022-08-19T07:48:23.011Z,27.75
2022-08-19T07:51:11.937Z,27.73
2022-08-19T07:54:01.365Z,27.85
2022-08-19T07:56:48.609Z,27.94
2022-08-19T07:59:38.232Z,28.00
2022-08-19T08:02:25.728Z,28.06
2022-08-19T08:05:33.966Z,28.14
2022-08-19T08:08:27.594Z,28.26
2022-08-19T08:11:15.770Z,28.25
2022-08-19T08:14:04.522Z,28.36
2022-08-19T08:16:53.400Z,28.37
2022-08-19T08:19:43.416Z,28.47
2022-08-19T08:22:48.899Z,28.62
2022-08-19T08:25:38.944Z,28.88
2022-08-19T08:28:29.805Z,29.03
2022-08-19T08:31:16.680Z,29.05
2022-08-19T08:34:04.192Z,29.06
2022-08-19T08:36:52.944Z,29.25
2022-08-19T08:39:40.415Z,29.25
2022-08-19T08:42:33.360Z,29.42
2022-08-19T08:45:20.858Z,29.49
2022-08-19T08:48:22.386Z,29.55
2022-08-19T08:51:02.200Z,29.76
2022-08-19T08:53:50.911Z,29.91
2022-08-19T08:56:44.160Z,29.91
2022-08-19T08:59:34.281Z,29.90
2022-08-19T09:02:21.554Z,30.00
2022-08-19T09:05:11.024Z,30.01
2022-08-19T09:08:03.728Z,30.01
2022-08-19T09:10:56.063Z,30.14
2022-08-19T09:14:06.004Z,30.34
2022-08-19T09:16:53.521Z,30.75
2022-08-19T09:19:58.497Z,30.97
2022-08-19T09:22:46.408Z,31.18
2022-08-19T09:25:35.603Z,31.32
2022-08-19T09:28:26.949Z,31.43
2022-08-19T09:31:20.528Z,31.46
2022-08-19T09:34:07.736Z,31.25
2022-08-19T09:36:58.665Z,31.32
2022-08-19T09:39:45.884Z,31.30
2022-08-19T09:42:35.280Z,31.30
2022-08-19T09:45:24.112Z,31.50
2022-08-19T09:48:11.687Z,31.49
2022-08-19T09:51:08.703Z,31.52
2022-08-19T09:54:00.952Z,31.50
2022-08-19T09:56:50.240Z,31.43
2022-08-19T09:59:37.560Z,31.56
2022-08-19T10:02:25.976Z,31.66
2022-08-19T10:05:32.471Z,31.69
2022-08-19T10:08:22.776Z,31.94
2022-08-19T10:11:28.575Z,32.11
2022-08-19T10:14:01.648Z,32.24
2022-08-19T10:16:50.391Z,32.19
2022-08-19T10:19:37.727Z,32.23
2022-08-19T10:22:26.202Z,32.46
2022-08-19T10:25:15.111Z,32.65
2022-08-19T10:28:02.967Z,32.81
2022-08-19T10:30:50.408Z,32.85
2022-08-19T10:33:53.350Z,32.83
2022-08-19T10:36:33.977Z,32.86
2022-08-19T10:39:22.844Z,32.95
2022-08-19T10:42:12.969Z,32.76
2022-08-19T10:45:01.153Z,32.69
2022-08-19T10:47:48.826Z,32.72
2022-08-19T10:50:53.948Z,32.83
2022-08-19T10:53:41.568Z,32.79
2022-08-19T10:56:47.711Z,32.89
2022-08-19T10:59:36.568Z,32.74
2022-08-19T11:02:25.032Z,32.70
2022-08-19T11:05:13.696Z,32.75
2022-08-19T11:08:01.615Z,32.93
2022-08-19T11:10:51.199Z,32.93
2022-08-19T11:13:42.055Z,32.73
2022-08-19T11:16:30.887Z,32.71
2022-08-19T11:19:20.304Z,32.99
2022-08-19T11:22:10.504Z,33.20
2022-08-19T11:24:59.879Z,33.18
2022-08-19T11:27:47.935Z,33.18
2022-08-19T11:30:35.544Z,33.29
2022-08-19T11:33:23.313Z,33.37
2022-08-19T11:36:11.159Z,33.67
2022-08-19T11:39:01.216Z,33.70
2022-08-19T11:41:48.849Z,33.74
2022-08-19T11:44:36.963Z,33.66
2022-08-19T11:47:25.231Z,33.63
2022-08-19T11:50:12.288Z,33.77
2022-08-19T11:52:59.936Z,33.80
2022-08-19T11:55:47.112Z,33.81
2022-08-19T11:58:35.824Z,33.87
2022-08-19T12:01:25.232Z,34.02
2022-08-19T12:04:12.864Z,33.94
2022-08-19T12:07:00.121Z,34.01
2022-08-19T12:09:48.664Z,34.04
2022-08-19T12:12:38.272Z,34.28
2022-08-19T12:15:25.863Z,34.25
2022-08-19T12:18:14.943Z,34.55
2022-08-19T12:21:02.506Z,34.68
2022-08-19T12:23:55.507Z,34.77
2022-08-19T12:26:53.346Z,34.66
2022-08-19T12:29:30.858Z,34.64
2022-08-19T12:32:18.544Z,34.80
2022-08-19T12:35:06.405Z,35.00
2022-08-19T12:37:57.343Z,34.91
2022-08-19T12:40:45.632Z,34.80
2022-08-19T12:43:33.095Z,34.92
2022-08-19T12:46:22.263Z,35.06
2022-08-19T12:49:16.791Z,35.11
2022-08-19T12:52:00.081Z,35.26
2022-08-19T12:54:48.015Z,35.37
2022-08-19T12:57:37.937Z,35.51
2022-08-19T13:00:25.306Z,35.55
2022-08-19T13:03:12.642Z,35.80
2022-08-19T13:05:59.895Z,35.78
2022-08-19T13:08:47.368Z,35.82
2022-08-19T13:11:34.920Z,36.10
2022-08-19T13:14:22.248Z,36.47
2022-08-19T13:17:09.892Z,36.92
2022-08-19T13:19:57.904Z,37.22
2022-08-19T13:22:46.183Z,37.57
2022-08-19T13:25:34.290Z,37.84
2022-08-19T13:28:22.233Z,38.14
2022-08-19T13:31:28.985Z,38.52
2022-08-19T13:34:17.536Z,38.87
2022-08-19T13:37:06.431Z,39.13
2022-08-19T13:39:54.157Z,39.54
2022-08-19T13:42:42.096Z,39.80
2022-08-19T13:45:33.361Z,40.01
2022-08-19T13:48:20.720Z,40.26
2022-08-19T13:51:10.049Z,40.19
2022-08-19T13:53:57.745Z,40.44
2022-08-19T13:56:46.671Z,40.81
2022-08-19T13:59:34.304Z,41.31
2022-08-19T14:02:21.888Z,41.70
2022-08-19T14:05:11.064Z,41.73
2022-08-19T14:07:59.464Z,41.71
2022-08-19T14:10:47.064Z,41.52
2022-08-19T14:13:35.128Z,41.39
2022-08-19T14:16:23.018Z,41.23
2022-08-19T14:19:10.320Z,41.41
2022-08-19T14:21:58.756Z,41.45
2022-08-19T14:24:47.914Z,41.45
2022-08-19T14:27:36.626Z,41.39
2022-08-19T14:30:32.728Z,41.38
2022-08-19T14:33:20.048Z,41.64
2022-08-19T14:36:08.144Z,41.77
2022-08-19T14:38:55.799Z,41.51
2022-08-19T14:41:43.871Z,41.51
2022-08-19T14:44:32.889Z,41.62
2022-08-19T14:47:20.744Z,41.46
2022-08-19T14:50:17.856Z,41.36
2022-08-19T14:53:11.981Z,41.40
2022-08-19T14:55:56.034Z,41.27
2022-08-19T14:58:44.955Z,41.19
2022-08-19T15:01:32.883Z,41.45
2022-08-19T15:04:20.114Z,41.35
2022-08-19T15:07:08.413Z,41.22
2022-08-19T15:09:56.039Z,40.91
2022-08-19T15:12:45.150Z,40.52
2022-08-19T15:15:33.176Z,40.46
2022-08-19T15:18:21.517Z,40.47
2022-08-19T15:21:09.080Z,40.47
2022-08-19T15:23:58.448Z,40.16
2022-08-19T15:26:45.624Z,39.96
2022-08-19T15:29:33.280Z,39.77
2022-08-19T15:32:20.937Z,39.65
2022-08-19T15:35:09.601Z,39.54
2022-08-19T15:37:57.726Z,39.46
2022-08-19T15:40:45.887Z,39.49
2022-08-19T15:43:33.074Z,39.40
2022-08-19T15:46:23.810Z,39.26
2022-08-19T15:49:12.576Z,39.18
2022-08-19T15:52:01.744Z,39.03
2022-08-19T15:54:48.449Z,38.87
2022-08-19T15:57:53.824Z,38.81
2022-08-19T16:00:59.513Z,38.77
2022-08-19T16:04:11.021Z,38.40
2022-08-19T16:06:58.939Z,38.11
2022-08-19T16:09:46.042Z,37.76
2022-08-19T16:12:33.904Z,37.34
2022-08-19T16:15:21.569Z,36.98
2022-08-19T16:18:09.320Z,36.77
2022-08-19T16:20:56.944Z,36.52
2022-08-19T16:23:47.133Z,36.26
2022-08-19T16:26:35.697Z,36.01
2022-08-19T16:29:34.892Z,35.65
2022-08-19T16:32:14.177Z,35.04
2022-08-19T16:35:06.647Z,34.29
2022-08-19T16:37:54.123Z,33.65
2022-08-19T16:40:45.014Z,33.17
2022-08-19T16:43:31.672Z,32.77
2022-08-19T16:46:19.632Z,32.38
2022-08-19T16:49:10.736Z,32.02
2022-08-19T16:51:57.680Z,31.77
2022-08-19T16:54:45.463Z,31.53
2022-08-19T16:57:33.417Z,31.31
2022-08-19T17:00:21.432Z,31.05
2022-08-19T17:03:14.624Z,30.84
2022-08-19T17:06:03.973Z,30.64
2022-08-19T17:08:53.305Z,30.44
2022-08-19T17:11:40.687Z,30.23
2022-08-19T17:14:28.137Z,30.05
2022-08-19T17:17:16.153Z,29.91
2022-08-19T17:20:06.056Z,29.71
2022-08-19T17:22:53.447Z,29.63
2022-08-19T17:25:40.890Z,29.55
2022-08-19T17:28:30.513Z,29.43
2022-08-19T17:31:19.187Z,29.34
2022-08-19T17:34:06.629Z,29.23
2022-08-19T17:36:57.234Z,29.15
2022-08-19T17:39:44.749Z,29.05
2022-08-19T17:42:32.611Z,28.92
2022-08-19T17:45:20.801Z,28.78
2022-08-19T17:48:08.857Z,28.58
2022-08-19T17:50:56.233Z,28.40
2022-08-19T17:53:45.656Z,28.23
2022-08-19T17:56:33.563Z,28.01
2022-08-19T17:59:20.968Z,27.78
2022-08-19T18:02:11.287Z,27.56
2022-08-19T18:04:59.433Z,27.38
2022-08-19T18:07:49.264Z,27.22
2022-08-19T18:10:38.161Z,27.09
2022-08-19T18:13:25.817Z,26.99
2022-08-19T18:16:13.601Z,26.93
2022-08-19T18:19:01.293Z,26.93
2022-08-19T18:21:49.152Z,26.99
2022-08-19T18:24:41.838Z,27.07
2022-08-19T18:27:29.427Z,27.08
2022-08-19T18:30:17.762Z,27.05
2022-08-19T18:33:09.520Z,26.94
2022-08-19T18:35:56.832Z,26.75
2022-08-19T18:39:06.810Z,26.56
2022-08-19T18:42:09.904Z,26.36
2022-08-19T18:45:15.560Z,26.20
2022-08-19T18:48:27.691Z,26.08
2022-08-19T18:51:11.264Z,26.00
2022-08-19T18:53:59.952Z,25.97
2022-08-19T18:56:49.082Z,25.93
2022-08-19T18:59:37.754Z,25.87
2022-08-19T19:02:28.297Z,25.77
2022-08-19T19:05:16.840Z,25.68
2022-08-19T19:08:04.776Z,25.57
2022-08-19T19:10:55.367Z,25.52
2022-08-19T19:13:48.530Z,25.48
2022-08-19T19:16:36.288Z,25.43
2022-08-19T19:19:24.747Z,25.29
2022-08-19T19:22:20.513Z,25.06
2022-08-19T19:25:12.160Z,24.85
2022-08-19T19:28:00.018Z,24.71
2022-08-19T19:30:47.248Z,24.70
2022-08-19T19:33:35.544Z,24.71
2022-08-19T19:36:25.466Z,24.65
2022-08-19T19:39:12.852Z,24.58
2022-08-19T19:42:03.197Z,24.46
2022-08-19T19:44:53.969Z,24.38
2022-08-19T19:47:44.216Z,24.28
2022-08-19T19:50:31.632Z,24.25
2022-08-19T19:53:19.490Z,24.25
2022-08-19T19:56:07.640Z,24.29
2022-08-19T19:58:55.659Z,24.27
2022-08-19T20:01:44.918Z,24.22
2022-08-19T20:04:33.073Z,24.20
2022-08-19T20:07:23.177Z,24.12
2022-08-19T20:10:10.729Z,24.01
2022-08-19T20:12:58.255Z,23.97
2022-08-19T20:15:45.993Z,23.98
2022-08-19T20:18:34.209Z,23.98
2022-08-19T20:21:22.641Z,24.01
2022-08-19T20:24:14.057Z,24.02
2022-08-19T20:27:05.090Z,24.05
2022-08-19T20:29:52.824Z,24.03
2022-08-19T20:32:42.912Z,23.97
2022-08-19T20:35:33.161Z,23.90
2022-08-19T20:38:22.961Z,23.81
2022-08-19T20:41:11.608Z,23.78
2022-08-19T20:44:04.136Z,23.73
2022-08-19T20:46:55.622Z,23.70
2022-08-19T20:49:41.088Z,23.65
2022-08-19T20:52:28.961Z,23.57
2022-08-19T20:55:16.296Z,23.51
2022-08-19T20:58:05.912Z,23.44
2022-08-19T21:00:57.209Z,23.41
2022-08-19T21:03:44.856Z,23.38
2022-08-19T21:06:32.625Z,23.35
2022-08-19T21:09:20.010Z,23.31
2022-08-19T21:12:08.770Z,23.29
2022-08-19T21:14:56.280Z,23.22
2022-08-19T21:17:43.841Z,23.17
2022-08-19T21:20:31.425Z,23.16
2022-08-19T21:23:22.498Z,23.15
2022-08-19T21:26:10.017Z,23.15
2022-08-19T21:28:57.920Z,23.13
2022-08-19T21:31:45.361Z,23.16
2022-08-19T21:34:33.009Z,23.18
2022-08-19T21:37:25.205Z,23.21
2022-08-19T21:40:10.787Z,23.22
2022-08-19T21:42:58.235Z,23.21
2022-08-19T21:45:47.636Z,23.19
2022-08-19T21:48:35.377Z,23.18
2022-08-19T21:51:22.656Z,23.10
2022-08-19T21:54:14.186Z,23.00
2022-08-19T21:57:00.060Z,22.93
2022-08-19T21:59:48.008Z,22.93
2022-08-19T22:02:35.555Z,22.94
2022-08-19T22:05:24.658Z,22.88
2022-08-19T22:08:14.528Z,22.85
2022-08-19T22:11:04.409Z,22.79
2022-08-19T22:13:53.684Z,22.70
2022-08-19T22:16:41.161Z,22.60
2022-08-19T22:19:29.386Z,22.51
2022-08-19T22:22:24.941Z,22.38
2022-08-19T22:25:31.134Z,22.26
2022-08-19T22:28:08.273Z,22.16
2022-08-19T22:30:57.783Z,22.12
2022-08-19T22:33:45.399Z,22.12
2022-08-19T22:36:33.360Z,22.09
2022-08-19T22:39:21.249Z,21.99
2022-08-19T22:42:08.757Z,21.81
2022-08-19T22:44:59.065Z,21.67
2022-08-19T22:47:46.416Z,21.60
2022-08-19T22:50:35.040Z,21.60
2022-08-19T22:53:22.202Z,21.64
2022-08-19T22:56:15.170Z,21.66
2022-08-19T22:59:00.976Z,21.65
2022-08-19T23:01:48.610Z,21.61
2022-08-19T23:04:36.892Z,21.57
2022-08-19T23:07:24.691Z,21.44
2022-08-19T23:10:12.410Z,21.27
2022-08-19T23:13:00.562Z,21.14
2022-08-19T23:15:48.629Z,21.08
2022-08-19T23:18:35.953Z,20.99
2022-08-19T23:21:26.680Z,21.00
2022-08-19T23:24:14.296Z,21.08
2022-08-19T23:27:19.595Z,21.15
2022-08-19T23:30:25.576Z,21.21
2022-08-19T23:33:36.233Z,21.28
2022-08-19T23:36:20.072Z,21.34
2022-08-19T23:39:07.649Z,21.32
2022-08-19T23:41:55.801Z,21.30
2022-08-19T23:44:51.884Z,21.24
2022-08-19T23:47:34.721Z,21.24
2022-08-19T23:50:22.584Z,21.28
2022-08-19T23:53:13.295Z,21.32
2022-08-19T23:55:59.664Z,21.32
2022-08-19T23:58:49.241Z,21.30
